createdAt,value
2022-08-08T00:01:09.026Z,19.30
2022-08-08T00:03:51.033Z,19.25
2022-08-08T00:06:35.345Z,19.29
2022-08-08T00:09:11.992Z,19.21
2022-08-08T00:11:46.790Z,19.14
2022-08-08T00:14:48.379Z,19.19
2022-08-08T00:18:01.952Z,19.14
2022-08-08T00:20:43.026Z,19.10
2022-08-08T00:23:20.058Z,19.17
2022-08-08T00:25:52.877Z,19.11
2022-08-08T00:28:35.580Z,18.91
2022-08-08T00:32:16.273Z,18.91
2022-08-08T00:34:31.376Z,18.83
2022-08-08T00:37:16.633Z,18.81
2022-08-08T00:41:12.950Z,18.76
2022-08-08T00:43:40.629Z,18.82
2022-08-08T00:46:25.237Z,18.81
2022-08-08T00:49:22.033Z,18.86
2022-08-08T00:52:28.873Z,18.77
2022-08-08T00:55:53.149Z,18.62
2022-08-08T00:58:34.605Z,18.58
2022-08-08T01:01:19.648Z,18.45
2022-08-08T01:04:36.715Z,18.57
2022-08-08T01:07:56.236Z,18.55
2022-08-08T01:11:00.848Z,18.40
2022-08-08T01:13:58.412Z,18.39
2022-08-08T01:17:00.225Z,18.45
2022-08-08T01:20:03.691Z,18.44
2022-08-08T01:23:03.065Z,18.33
2022-08-08T01:26:11.549Z,18.40
2022-08-08T01:29:06.241Z,18.34
2022-08-08T01:32:21.540Z,18.34
2022-08-08T01:35:11.781Z,18.38
2022-08-08T01:38:12.791Z,18.37
2022-08-08T01:40:52.649Z,18.43
2022-08-08T01:43:40.041Z,18.41
2022-08-08T01:46:27.082Z,18.31
2022-08-08T01:49:02.830Z,18.17
2022-08-08T01:52:49.938Z,18.16
2022-08-08T01:55:25.754Z,18.11
2022-08-08T01:58:10.623Z,18.02
2022-08-08T02:00:44.368Z,18.01
2022-08-08T02:03:50.484Z,18.03
2022-08-08T02:06:31.688Z,18.02
2022-08-08T02:09:16.247Z,17.99
2022-08-08T02:11:58.756Z,18.02
2022-08-08T02:14:50.003Z,18.07
2022-08-08T02:17:36.590Z,18.06
2022-08-08T02:21:01.358Z,18.08
2022-08-08T02:23:16.038Z,18.00
2022-08-08T02:25:51.012Z,17.90
2022-08-08T02:28:25.961Z,17.86
2022-08-08T02:31:43.341Z,17.90
2022-08-08T02:34:09.227Z,17.79
2022-08-08T02:36:44.373Z,17.67
2022-08-08T02:39:59.930Z,17.73
2022-08-08T02:44:11.559Z,17.72
2022-08-08T02:46:28.201Z,17.64
2022-08-08T02:49:50.704Z,17.68
2022-08-08T02:52:39.807Z,17.55
2022-08-08T02:55:25.635Z,17.55
2022-08-08T02:58:42.498Z,17.48
2022-08-08T03:01:58.642Z,17.43
2022-08-08T03:05:09.352Z,17.41
2022-08-08T03:08:19.365Z,17.44
2022-08-08T03:12:01.223Z,17.38
2022-08-08T03:16:01.860Z,17.43
2022-08-08T03:17:39.437Z,17.35
2022-08-08T03:20:10.539Z,17.38
2022-08-08T03:22:46.200Z,17.39
2022-08-08T03:25:18.468Z,17.28
2022-08-08T03:27:57.027Z,17.29
2022-08-08T03:30:25.997Z,17.26
2022-08-08T03:33:57.004Z,17.28
2022-08-08T03:36:00.151Z,17.28
2022-08-08T03:38:55.896Z,17.15
2022-08-08T03:42:12.334Z,17.13
2022-08-08T03:44:06.528Z,17.08
2022-08-08T03:46:44.776Z,17.04
2022-08-08T03:50:00.716Z,17.02
2022-08-08T03:52:07.658Z,17.09
2022-08-08T03:55:02.185Z,17.02
2022-08-08T03:58:32.222Z,17.02
2022-08-08T04:00:22.332Z,17.02
2022-08-08T04:03:00.396Z,16.98
2022-08-08T04:05:29.867Z,16.93
2022-08-08T04:08:00.755Z,16.88
2022-08-08T04:10:32.618Z,16.88
2022-08-08T04:13:00.763Z,16.93
2022-08-08T04:15:54.748Z,17.02
2022-08-08T04:18:31.468Z,17.08
2022-08-08T04:20:59.845Z,17.03
2022-08-08T04:23:33.147Z,17.03
2022-08-08T04:26:17.708Z,16.96
2022-08-08T04:28:47.375Z,17.05
2022-08-08T04:31:56.828Z,17.21
2022-08-08T04:34:02.687Z,18.23
2022-08-08T04:36:30.379Z,18.71
2022-08-08T04:39:48.061Z,18.94
2022-08-08T04:41:47.800Z,18.54
2022-08-08T04:44:18.314Z,18.53
2022-08-08T04:46:48.778Z,18.46
2022-08-08T04:49:20.102Z,18.54
2022-08-08T04:51:57.732Z,19.09
2022-08-08T04:54:39.590Z,19.22
2022-08-08T04:57:11.656Z,18.92
2022-08-08T04:59:42.225Z,18.71
2022-08-08T05:02:13.412Z,18.39
2022-08-08T05:04:41.985Z,18.35
2022-08-08T05:07:15.113Z,18.23
2022-08-08T05:09:43.468Z,18.27
2022-08-08T05:12:21.068Z,18.10
2022-08-08T05:14:49.128Z,18.20
2022-08-08T05:17:20.095Z,18.34
2022-08-08T05:20:08.982Z,18.46
2022-08-08T05:22:36.981Z,18.47
2022-08-08T05:25:05.915Z,18.70
2022-08-08T05:27:41.792Z,18.56
2022-08-08T05:30:13.061Z,18.77
2022-08-08T05:32:41.006Z,19.55
2022-08-08T05:35:13.670Z,20.60
2022-08-08T05:37:53.771Z,22.16
2022-08-08T05:40:28.095Z,23.73
2022-08-08T05:43:38.074Z,24.52
2022-08-08T05:45:54.763Z,25.20
2022-08-08T05:48:28.247Z,25.09
2022-08-08T05:51:15.435Z,25.25
2022-08-08T05:54:26.049Z,25.77
2022-08-08T05:56:42.267Z,25.60
2022-08-08T05:59:59.138Z,26.67
2022-08-08T06:02:34.081Z,26.89
2022-08-08T06:05:06.894Z,27.86
2022-08-08T06:08:02.530Z,27.93
2022-08-08T06:10:40.930Z,28.04
2022-08-08T06:13:09.663Z,28.05
2022-08-08T06:15:50.501Z,28.04
2022-08-08T06:18:22.247Z,28.23
2022-08-08T06:20:56.596Z,28.09
2022-08-08T06:23:48.512Z,28.68
2022-08-08T06:26:36.218Z,29.08
2022-08-08T06:29:26.609Z,29.39
2022-08-08T06:32:10.702Z,28.12
2022-08-08T06:34:56.477Z,28.41
2022-08-08T06:37:39.557Z,28.80
2022-08-08T06:40:16.204Z,28.10
2022-08-08T06:42:56.224Z,29.26
2022-08-08T06:45:25.791Z,29.43
2022-08-08T06:48:00.782Z,27.03
2022-08-08T06:50:31.956Z,28.29
2022-08-08T06:53:14.190Z,29.61
2022-08-08T06:56:00.717Z,28.96
2022-08-08T06:58:30.375Z,30.14
2022-08-08T07:01:01.825Z,30.29
2022-08-08T07:04:40.076Z,30.16
2022-08-08T07:06:45.068Z,30.67
2022-08-08T07:09:18.045Z,30.50
2022-08-08T07:11:52.011Z,30.26
2022-08-08T07:14:27.356Z,31.09
2022-08-08T07:17:02.704Z,30.98
2022-08-08T07:19:41.412Z,30.94
2022-08-08T07:22:18.271Z,30.84
2022-08-08T07:24:52.854Z,31.42
2022-08-08T07:27:27.871Z,27.57
2022-08-08T07:30:18.268Z,29.12
2022-08-08T07:32:49.852Z,30.77
2022-08-08T07:35:19.820Z,31.28
2022-08-08T07:38:04.586Z,31.97
2022-08-08T07:40:40.056Z,31.22
2022-08-08T07:43:09.667Z,30.44
2022-08-08T07:46:05.262Z,29.66
2022-08-08T07:48:29.768Z,27.80
2022-08-08T07:51:00.986Z,28.75
2022-08-08T07:54:00.708Z,28.77
2022-08-08T07:56:36.302Z,29.52
2022-08-08T07:59:11.038Z,30.35
2022-08-08T08:02:35.397Z,30.66
2022-08-08T08:04:45.147Z,31.05
2022-08-08T08:07:22.567Z,30.85
2022-08-08T08:09:56.348Z,29.55
2022-08-08T08:12:35.293Z,29.61
2022-08-08T08:15:16.575Z,30.18
2022-08-08T08:17:48.661Z,30.89
2022-08-08T08:20:19.213Z,31.45
2022-08-08T08:22:49.746Z,31.15
2022-08-08T08:25:35.000Z,29.54
2022-08-08T08:28:05.500Z,28.69
2022-08-08T08:30:38.877Z,27.57
2022-08-08T08:33:07.048Z,29.42
2022-08-08T08:36:19.490Z,30.10
2022-08-08T08:38:28.766Z,29.94
2022-08-08T08:40:56.399Z,29.89
2022-08-08T08:43:28.974Z,30.22
2022-08-08T08:45:57.757Z,29.99
2022-08-08T08:48:26.029Z,29.99
2022-08-08T08:50:55.806Z,29.76
2022-08-08T08:53:27.873Z,29.79
2022-08-08T08:56:15.193Z,30.58
2022-08-08T08:58:52.769Z,30.41
2022-08-08T09:01:23.735Z,28.76
2022-08-08T09:03:52.277Z,29.32
2022-08-08T09:06:28.241Z,29.33
2022-08-08T09:09:04.669Z,27.26
2022-08-08T09:11:47.783Z,27.77
2022-08-08T09:14:25.918Z,27.48
2022-08-08T09:16:55.361Z,27.39
2022-08-08T09:21:57.183Z,27.30
2022-08-08T09:22:12.206Z,27.26
2022-08-08T09:24:40.857Z,27.27
2022-08-08T09:27:14.861Z,27.00
2022-08-08T09:29:56.847Z,27.00
2022-08-08T09:32:37.027Z,26.96
2022-08-08T09:35:08.627Z,26.93
2022-08-08T09:37:58.286Z,26.86
2022-08-08T09:40:44.012Z,26.42
2022-08-08T09:43:40.805Z,26.84
2022-08-08T09:46:25.589Z,26.75
2022-08-08T09:49:18.200Z,27.06
2022-08-08T09:52:07.228Z,27.07
2022-08-08T09:54:44.132Z,27.18
2022-08-08T09:57:16.948Z,27.31
2022-08-08T10:00:14.810Z,27.20
2022-08-08T10:02:40.607Z,27.23
2022-08-08T10:05:14.485Z,27.06
2022-08-08T10:08:00.485Z,27.21
2022-08-08T10:10:32.330Z,27.36
2022-08-08T10:13:14.276Z,27.18
2022-08-08T10:15:59.242Z,27.12
2022-08-08T10:18:31.288Z,27.29
2022-08-08T10:21:08.373Z,27.27
2022-08-08T10:23:58.014Z,27.28
2022-08-08T10:26:51.873Z,26.96
2022-08-08T10:29:23.248Z,27.07
2022-08-08T10:32:15.923Z,26.89
2022-08-08T10:35:00.344Z,26.60
2022-08-08T10:37:30.541Z,26.95
2022-08-08T10:40:00.254Z,27.17
2022-08-08T10:42:37.509Z,27.17
2022-08-08T10:45:09.297Z,27.15
2022-08-08T10:47:43.040Z,27.23
2022-08-08T10:50:15.651Z,27.46
2022-08-08T10:52:44.545Z,27.73
2022-08-08T10:55:15.654Z,27.48
2022-08-08T10:58:05.981Z,27.44
2022-08-08T11:00:48.282Z,27.19
2022-08-08T11:03:18.701Z,27.69
2022-08-08T11:06:04.449Z,27.94
2022-08-08T11:08:40.921Z,28.01
2022-08-08T11:11:32.199Z,28.15
2022-08-08T11:14:03.509Z,28.15
2022-08-08T11:16:34.587Z,27.99
2022-08-08T11:19:05.751Z,28.03
2022-08-08T11:21:41.264Z,28.14
2022-08-08T11:24:10.914Z,28.22
2022-08-08T11:26:53.994Z,28.25
2022-08-08T11:29:41.885Z,28.00
2022-08-08T11:32:16.555Z,28.10
2022-08-08T11:35:23.284Z,28.27
2022-08-08T11:38:39.449Z,28.23
2022-08-08T11:40:28.413Z,28.22
2022-08-08T11:43:01.178Z,27.93
2022-08-08T11:45:29.861Z,28.30
2022-08-08T11:48:09.854Z,28.56
2022-08-08T11:50:39.741Z,28.20
2022-08-08T11:53:08.359Z,28.50
2022-08-08T11:55:36.798Z,28.31
2022-08-08T11:58:14.705Z,28.32
2022-08-08T12:00:47.354Z,27.83
2022-08-08T12:03:22.058Z,28.10
2022-08-08T12:05:53.480Z,27.88
2022-08-08T12:08:32.171Z,27.63
2022-08-08T12:11:02.405Z,27.73
2022-08-08T12:13:37.780Z,27.89
2022-08-08T12:16:20.507Z,28.15
2022-08-08T12:19:02.364Z,28.35
2022-08-08T12:22:00.422Z,28.53
2022-08-08T12:24:28.165Z,28.64
2022-08-08T12:26:57.138Z,28.97
2022-08-08T12:29:41.345Z,29.19
2022-08-08T12:32:13.594Z,29.28
2022-08-08T12:34:52.831Z,29.41
2022-08-08T12:37:41.010Z,29.25
2022-08-08T12:40:22.713Z,29.34
2022-08-08T12:42:52.866Z,29.37
2022-08-08T12:45:58.016Z,29.33
2022-08-08T12:48:37.683Z,29.34
2022-08-08T12:51:05.750Z,29.43
2022-08-08T12:53:58.500Z,29.20
2022-08-08T12:56:34.778Z,29.05
2022-08-08T12:59:03.257Z,29.06
2022-08-08T13:01:37.213Z,29.17
2022-08-08T13:04:18.800Z,28.68
2022-08-08T13:07:02.831Z,28.87
2022-08-08T13:10:01.901Z,29.06
2022-08-08T13:12:30.627Z,29.19
2022-08-08T13:15:00.928Z,29.38
2022-08-08T13:17:54.190Z,29.49
2022-08-08T13:20:21.709Z,29.52
2022-08-08T13:22:49.357Z,29.54
2022-08-08T13:25:21.193Z,29.63
2022-08-08T13:27:54.387Z,29.74
2022-08-08T13:30:26.095Z,29.77
2022-08-08T13:32:57.118Z,29.82
2022-08-08T13:35:29.596Z,29.67
2022-08-08T13:38:08.337Z,29.53
2022-08-08T13:40:44.752Z,29.42
2022-08-08T13:43:13.685Z,29.35
2022-08-08T13:45:47.667Z,28.95
2022-08-08T13:48:19.540Z,29.24
2022-08-08T13:50:53.877Z,29.32
2022-08-08T13:53:34.258Z,29.12
2022-08-08T13:56:11.279Z,29.37
2022-08-08T13:58:56.228Z,29.39
2022-08-08T14:01:42.018Z,29.37
2022-08-08T14:04:22.238Z,29.38
2022-08-08T14:06:58.710Z,29.25
2022-08-08T14:10:02.214Z,29.25
2022-08-08T14:12:21.579Z,29.35
2022-08-08T14:14:49.239Z,29.10
2022-08-08T14:17:36.296Z,29.07
2022-08-08T14:20:14.866Z,29.26
2022-08-08T14:23:10.355Z,29.19
2022-08-08T14:25:54.165Z,29.10
2022-08-08T14:28:29.217Z,29.09
2022-08-08T14:31:09.294Z,29.17
2022-08-08T14:33:39.033Z,29.23
2022-08-08T14:36:09.626Z,29.38
2022-08-08T14:38:51.940Z,29.37
2022-08-08T14:41:53.805Z,29.50
2022-08-08T14:44:17.076Z,29.40
2022-08-08T14:47:00.174Z,29.39
2022-08-08T14:49:51.550Z,29.28
2022-08-08T14:52:22.673Z,29.27
2022-08-08T14:54:51.199Z,29.23
2022-08-08T14:57:20.477Z,29.12
2022-08-08T14:59:56.021Z,29.02
2022-08-08T15:02:30.662Z,29.04
2022-08-08T15:05:10.782Z,28.91
2022-08-08T15:07:40.396Z,28.68
2022-08-08T15:10:11.527Z,28.99
2022-08-08T15:12:41.286Z,29.04
2022-08-08T15:15:11.608Z,29.23
2022-08-08T15:17:47.992Z,29.14
2022-08-08T15:20:17.223Z,29.17
2022-08-08T15:22:46.379Z,29.17
2022-08-08T15:25:17.391Z,29.15
2022-08-08T15:28:04.078Z,29.28
2022-08-08T15:30:48.731Z,29.32
2022-08-08T15:33:35.372Z,29.36
2022-08-08T15:36:05.473Z,29.27
2022-08-08T15:38:33.889Z,29.23
2022-08-08T15:41:01.617Z,29.15
2022-08-08T15:43:35.124Z,29.15
2022-08-08T15:46:06.138Z,29.09
2022-08-08T15:48:33.828Z,29.18
2022-08-08T15:51:06.523Z,29.20
2022-08-08T15:53:49.386Z,29.17
2022-08-08T15:56:19.631Z,29.15
2022-08-08T15:58:49.188Z,29.06
2022-08-08T16:01:21.078Z,29.16
2022-08-08T16:03:51.578Z,29.18
2022-08-08T16:06:28.411Z,29.24
2022-08-08T16:13:02.319Z,29.20
2022-08-08T16:13:14.781Z,29.22
2022-08-08T16:14:33.738Z,29.22
2022-08-08T16:17:04.435Z,29.11
2022-08-08T16:19:59.741Z,29.13
2022-08-08T16:22:29.876Z,29.17
2022-08-08T16:24:58.718Z,29.10
2022-08-08T16:27:27.008Z,28.99
2022-08-08T16:30:13.667Z,28.94
2022-08-08T16:32:43.438Z,28.96
2022-08-08T16:35:18.880Z,28.98
2022-08-08T16:37:50.987Z,29.05
2022-08-08T16:40:19.796Z,29.06
2022-08-08T16:42:51.606Z,29.03
2022-08-08T16:46:36.258Z,28.96
2022-08-08T16:48:09.064Z,28.96
2022-08-08T16:50:36.672Z,28.88
2022-08-08T16:55:14.033Z,28.89
2022-08-08T16:55:57.403Z,28.93
2022-08-08T16:58:32.467Z,28.93
2022-08-08T17:01:03.198Z,28.89
2022-08-08T17:03:59.210Z,28.74
2022-08-08T17:06:36.566Z,28.73
2022-08-08T17:09:14.709Z,28.79
2022-08-08T17:11:49.252Z,28.72
2022-08-08T17:14:27.093Z,28.65
2022-08-08T17:16:58.603Z,28.64
2022-08-08T17:19:31.900Z,28.64
2022-08-08T17:22:09.241Z,28.61
2022-08-08T17:24:36.832Z,28.61
2022-08-08T17:27:07.717Z,28.57
2022-08-08T17:29:36.540Z,28.48
2022-08-08T17:32:11.198Z,28.39
2022-08-08T17:35:52.574Z,28.39
2022-08-08T17:37:28.096Z,28.35
2022-08-08T17:40:10.878Z,28.33
2022-08-08T17:42:40.335Z,28.31
2022-08-08T17:45:14.174Z,28.24
2022-08-08T17:47:50.889Z,28.08
2022-08-08T17:50:20.185Z,28.00
2022-08-08T17:52:48.823Z,28.08
2022-08-08T17:56:05.974Z,28.03
2022-08-08T17:58:04.481Z,28.02
2022-08-08T18:00:32.273Z,27.96
2022-08-08T18:03:08.058Z,27.91
2022-08-08T18:05:44.072Z,27.87
2022-08-08T18:08:36.895Z,27.80
2022-08-08T18:11:14.949Z,27.78
2022-08-08T18:13:45.586Z,27.69
2022-08-08T18:16:16.922Z,27.53
2022-08-08T18:18:54.051Z,27.45
2022-08-08T18:21:59.050Z,27.32
2022-08-08T18:24:19.524Z,27.28
2022-08-08T18:26:54.844Z,27.15
2022-08-08T18:29:30.018Z,27.12
2022-08-08T18:32:03.500Z,27.08
2022-08-08T18:34:32.725Z,27.03
2022-08-08T18:37:06.365Z,26.93
2022-08-08T18:39:36.931Z,26.84
2022-08-08T18:42:12.986Z,26.76
2022-08-08T18:44:42.395Z,26.74
2022-08-08T18:47:24.337Z,26.65
2022-08-08T18:49:57.631Z,26.55
2022-08-08T18:52:29.939Z,26.47
2022-08-08T18:54:59.683Z,26.38
2022-08-08T18:57:41.727Z,26.41
2022-08-08T19:00:16.890Z,26.42
2022-08-08T19:02:55.396Z,26.22
2022-08-08T19:05:32.204Z,26.16
2022-08-08T19:08:25.296Z,26.03
2022-08-08T19:10:57.653Z,25.85
2022-08-08T19:13:52.929Z,25.80
2022-08-08T19:16:15.858Z,25.79
2022-08-08T19:18:53.188Z,25.65
2022-08-08T19:21:31.104Z,25.63
2022-08-08T19:24:41.800Z,25.55
2022-08-08T19:27:03.306Z,25.36
2022-08-08T19:29:32.139Z,25.33
2022-08-08T19:32:01.837Z,25.32
2022-08-08T19:34:38.670Z,25.34
2022-08-08T19:37:16.517Z,25.33
2022-08-08T19:39:46.102Z,25.18
2022-08-08T19:42:19.484Z,25.15
2022-08-08T19:44:50.431Z,25.15
2022-08-08T19:47:24.669Z,24.99
2022-08-08T19:50:00.221Z,24.94
2022-08-08T19:52:34.744Z,24.91
2022-08-08T19:55:09.154Z,24.92
2022-08-08T19:57:37.955Z,24.91
2022-08-08T20:00:11.635Z,24.92
2022-08-08T20:02:56.491Z,24.80
2022-08-08T20:06:15.099Z,24.69
2022-08-08T20:08:28.826Z,24.64
2022-08-08T20:11:01.480Z,24.53
2022-08-08T20:14:12.512Z,24.42
2022-08-08T20:16:18.431Z,24.55
2022-08-08T20:18:52.763Z,24.56
2022-08-08T20:21:23.083Z,24.50
2022-08-08T20:23:54.290Z,24.43
2022-08-08T20:26:30.059Z,24.37
2022-08-08T20:29:01.982Z,24.37
2022-08-08T20:31:47.233Z,24.30
2022-08-08T20:34:29.074Z,24.31
2022-08-08T20:36:59.906Z,24.16
2022-08-08T20:39:39.733Z,24.12
2022-08-08T20:42:17.133Z,24.08
2022-08-08T20:44:45.118Z,23.98
2022-08-08T20:47:22.702Z,23.98
2022-08-08T20:49:54.298Z,24.03
2022-08-08T20:52:25.564Z,24.01
2022-08-08T20:54:53.250Z,24.00
2022-08-08T20:57:22.997Z,23.95
2022-08-08T20:59:56.003Z,23.84
2022-08-08T21:02:25.904Z,23.73
2022-08-08T21:04:57.335Z,23.70
2022-08-08T21:07:47.311Z,23.72
2022-08-08T21:10:20.886Z,23.67
2022-08-08T21:12:54.124Z,23.59
2022-08-08T21:16:04.909Z,23.60
2022-08-08T21:18:10.137Z,23.46
2022-08-08T21:20:39.615Z,23.39
2022-08-08T21:23:13.029Z,23.36
2022-08-08T21:25:45.694Z,23.39
2022-08-08T21:28:33.671Z,23.41
2022-08-08T21:31:21.798Z,23.23
2022-08-08T21:33:50.961Z,23.21
2022-08-08T21:36:20.802Z,23.18
2022-08-08T21:38:50.256Z,23.12
2022-08-08T21:41:18.473Z,23.00
2022-08-08T21:44:06.957Z,22.98
2022-08-08T21:48:00.888Z,22.97
2022-08-08T21:49:22.562Z,22.89
2022-08-08T21:54:18.553Z,22.87
2022-08-08T21:54:54.208Z,22.88
2022-08-08T21:57:26.828Z,22.80
2022-08-08T22:00:04.047Z,22.80
2022-08-08T22:02:32.448Z,22.73
2022-08-08T22:05:02.076Z,22.58
2022-08-08T22:07:34.803Z,22.62
2022-08-08T22:10:09.930Z,22.52
2022-08-08T22:12:46.885Z,22.55
2022-08-08T22:15:16.057Z,22.46
2022-08-08T22:17:45.469Z,22.42
2022-08-08T22:20:18.750Z,22.43
2022-08-08T22:22:52.138Z,22.35
2022-08-08T22:25:25.769Z,22.30
2022-08-08T22:28:04.317Z,22.30
2022-08-08T22:30:44.031Z,22.28
2022-08-08T22:33:22.228Z,22.23
2022-08-08T22:36:12.463Z,22.21
2022-08-08T22:38:48.014Z,22.20
2022-08-08T22:41:21.034Z,22.08
2022-08-08T22:44:01.823Z,21.89
2022-08-08T22:46:38.977Z,21.85
2022-08-08T22:49:09.427Z,21.81
2022-08-08T22:51:42.415Z,21.86
2022-08-08T22:54:33.780Z,21.87
2022-08-08T22:57:01.818Z,21.78
2022-08-08T22:59:58.617Z,21.78
2022-08-08T23:02:29.490Z,21.73
2022-08-08T23:04:57.849Z,21.72
2022-08-08T23:07:51.624Z,21.64
2022-08-08T23:10:19.832Z,21.64
2022-08-08T23:12:48.924Z,21.64
2022-08-08T23:16:38.947Z,21.53
2022-08-08T23:18:12.154Z,21.64
2022-08-08T23:20:41.266Z,21.58
2022-08-08T23:23:12.198Z,21.50
2022-08-08T23:25:48.464Z,21.46
2022-08-08T23:28:18.686Z,21.31
2022-08-08T23:30:46.987Z,21.34
2022-08-08T23:33:20.987Z,21.22
2022-08-08T23:36:07.890Z,21.18
2022-08-08T23:38:44.692Z,21.13
2022-08-08T23:41:25.215Z,20.99
2022-08-08T23:43:57.076Z,20.90
2022-08-08T23:49:08.767Z,20.92
2022-08-08T23:49:18.658Z,21.01
2022-08-08T23:52:04.446Z,20.96
2022-08-08T23:54:41.200Z,21.09
2022-08-08T23:57:26.519Z,20.96
